Hlavní strana
METAR-TAF:

METAR-TAF

Letiště :

Letiště Luena

Luena, Angola

zeměpisná šířka: 11-46-05S, zeměpisná délka: 19-53-50E, výška: 1329 m

Aktuální stav počasí

Zpráva byla vytvořena před 54 minutami, v 12:00 UTC
Severozápadní vítr 5 kt
Teplota 27°C
Vlhkost vzduchu 74%
Tlak 1018 hPa
Viditelnost 10 km a více

METAR: FNUE 191200Z 31005KT 9999 27/22 Q1018

Čas: 13:54 (12:54 UTC)

Předpověď počasí

Zpráva byla vytvořena před 2 hodinami a 9 minutami, v 10:45 UTC
Předpověď platná od 19 v 12 UTC do 19 v 24 UTC
Jihozápadní vítr 8 kt
Viditelnost 10 km a více
Polojasno ve výšce 3000 ft
Pravděpodobnost 30% :
Dočasný
od 19 v 13 UTC do 19 v 17 UTC
Viditelnost: 7000 m
Polojasno ve výšce 1500 ft
Oblačno až skoro zataženo ve výšce 2000 ft
Skoro jasno ve výšce 2300 ft, Cumulonimbus.
slabý déšť

TAF: FNUE 191045Z 1912/1924 22008KT 9999 SCT030 PROB30 TEMPO 1913/1917 7000 -RA SCT015 BKN020 FEW023CB

Stav a předpovědi počasí z více než 4 000 letišť (zprávy METAR a TAF).

Červené a žluté tečky na mapě představují dostupné meteorologické stanice.

Když kurzor umístíte na tečku, zobrazí se název stanice.

Pak kliknutím zobrazíte stav a předpověď počasí.

Chcete-li změnit mapu, kliknutím na zelené tlačítko se znaménkem +mapu přiblížíte, kliknutím na zelené tlačítko se znaménkem – mapu oddálíte a kliknutím na zelené šipky přejdete na sousední mapy.


METAR-TAF: